Terminal Aerodrome Forecast
Issued by NWS

Home | Current Version | Previous Version | Text Only | Print | Product List | Glossary Off
Versions: 1 2 3 4 5 6 7 8 9 10 11 12

000
FTUS43 KICT 252320
TAFRSL
TAF
KRSL 252320Z 2600/2624 34010KT P6SM SKC
     FM261300 30007KT P6SM SKC
     FM261900 25005KT P6SM SKC
     FM262300 20005KT P6SM SKC=

USA.gov is the U.S. government's official web portal to all federal, state and local government web resources and services.